»·PEaware :: N9193G KBFL-KMHV

N9193G :: KBFL-KMHV

FLIGHT INFORMATION

Flight Status: Arrived
Operator: Privately registered:
United States
More flights under this callsign
Pilot: Seung K. (26649)
Aircraft: CESSNA 206 STATIONAIR
(C206)
More flights by this aircraft type
Origin: KBFL Meadows
United States
Destination: KMHV Mojave
United States
More flights between these airports :: More routes between these airports
Route: +
File this flight plan on PilotEdge
Remarks: cat6
Altitude:
(Current/Filed)
3,500ft
Speed:
(Current/Filed)
0kts
Departed: 13-Dec-19 05:39 PM
Arrived: 13-Dec-19 06:16 PM
Distance/Time
Traveled:
50nm/0:36
Distance/Time
To Go:
Arrived

Flight Plot

Page will automatically refresh every two minutes.


Map Options




Map Legend


Flown Route
Filed Route
Departure Airport
Arrival Airport
Navaid (VOR, NDB)
Fix

Horizontal Profiles

Position Reports

Time Latitude Longitude Heading Altitude Ground
Speed
13-Dec-19 17:35 35.426002 -119.042687 180 483ft 0kts
13-Dec-19 17:36 35.425942 -119.042688 180 483ft 0kts
13-Dec-19 17:37 35.425516 -119.045568 270 477ft 0kts
13-Dec-19 17:38 35.427268 -119.048241 314 480ft 66kts
13-Dec-19 17:39 35.442753 -119.054058 61 1458ft 92kts
13-Dec-19 17:40 35.435901 -119.036699 122 2427ft 93kts
13-Dec-19 17:41 35.424645 -119.019987 127 2761ft 140kts
13-Dec-19 17:42 35.410477 -118.994353 120 2889ft 144kts
13-Dec-19 17:43 35.398468 -118.968430 117 3552ft 130kts
13-Dec-19 17:44 35.387965 -118.943954 116 4283ft 126kts
13-Dec-19 17:45 35.376963 -118.917531 115 5071ft 127kts
13-Dec-19 17:46 35.365716 -118.890206 115 5846ft 129kts
13-Dec-19 17:47 35.354257 -118.862269 115 6625ft 131kts
13-Dec-19 17:48 35.342592 -118.833815 116 7408ft 133kts
13-Dec-19 17:49 35.330969 -118.805548 117 7742ft 157kts
13-Dec-19 17:50 35.316714 -118.771139 117 7732ft 164kts
13-Dec-19 17:51 35.302443 -118.736621 117 7732ft 165kts
13-Dec-19 17:52 35.288095 -118.701834 117 7732ft 165kts
13-Dec-19 17:53 35.273816 -118.667264 117 7732ft 165kts
13-Dec-19 17:54 35.260100 -118.634089 117 7732ft 165kts
13-Dec-19 17:55 35.245697 -118.599232 117 7738ft 165kts
13-Dec-19 17:56 35.231386 -118.564634 117 7732ft 165kts
13-Dec-19 17:57 35.217264 -118.530525 117 7733ft 165kts
13-Dec-19 17:58 35.202911 -118.495894 117 7761ft 165kts
13-Dec-19 17:59 35.189739 -118.464153 117 7734ft 166kts
13-Dec-19 18:01 35.175154 -118.429026 117 7765ft 166kts
13-Dec-19 18:02 35.160945 -118.394849 117 7760ft 167kts
13-Dec-19 18:03 35.148765 -118.365581 117 7734ft 166kts
13-Dec-19 18:04 35.135013 -118.332556 117 7735ft 166kts
13-Dec-19 18:05 35.121290 -118.299647 117 7735ft 166kts
13-Dec-19 18:06 35.108018 -118.268808 121 6848ft 155kts
13-Dec-19 18:07 35.095488 -118.244865 120 5951ft 116kts
13-Dec-19 18:08 35.085103 -118.224382 121 5120ft 103kts
13-Dec-19 18:09 35.076243 -118.208477 116 4520ft 96kts
13-Dec-19 18:10 35.072296 -118.188252 92 4101ft 94kts
13-Dec-19 18:11 35.071765 -118.168501 89 4005ft 97kts
13-Dec-19 18:12 35.072269 -118.150605 89 4022ft 79kts
13-Dec-19 18:13 35.071298 -118.133974 95 4095ft 81kts
13-Dec-19 18:14 35.063280 -118.123025 202 3867ft 86kts
13-Dec-19 18:15 35.059090 -118.139030 274 3037ft 87kts
13-Dec-19 18:16 35.059094 -118.151666 285 2755ft 38kts
13-Dec-19 18:17 35.059167 -118.156571 268 2764ft 26kts
13-Dec-19 18:18 35.057119 -118.157219 154 2761ft 0kts
13-Dec-19 18:19 35.057077 -118.157194 154 2761ft 0kts
13-Dec-19 18:19 35.057042 -118.157173 154 2761ft 0kts
13-Dec-19 18:21 35.056991 -118.157144 154 2761ft 0kts
13-Dec-19 18:22 35.056947 -118.157118 154 2761ft 0kts
13-Dec-19 18:22 35.056910 -118.157096 154 2761ft 0kts
13-Dec-19 18:23 35.056866 -118.157070 154 2761ft 0kts
13-Dec-19 18:25 35.056814 -118.157040 154 2761ft 0kts
13-Dec-19 18:25 35.056778 -118.157018 154 2761ft 0kts
13-Dec-19 18:26 35.056739 -118.156995 154 2760ft 0kts
13-Dec-19 18:27 35.056695 -118.156969 154 2760ft 0kts
13-Dec-19 18:28 35.056651 -118.156943 154 2760ft 0kts
13-Dec-19 18:29 35.056601 -118.156914 154 2760ft 0kts

Navigation Log

Ident Type
Flight plan parsing failed, navigation log unavailable